^^
Station Historical Data
Daily Summary for October 12, 2018 Units:  English    Metric   Both
« Previous Day
Next Day »
Daily Weekly Monthly Yearly Custom
  High: Low: Average:
Temperature: TemperatureF °F 29.7 °F 40.4 °F
Dew Point: DewpointF °F 26.2 °F 32.3 °F
Humidity: Humidity % 37 % 77 %
Wind Speed: WindSpeedMPH mph 0 mph 5 mph
Wind Gust: WindSpeedGustMPH mph - -
Wind:- - SE
Pressure: PressureIn in 30.00 in -
Precipitation: 0.01 in    
Historical Graphs
 
 
Tabular Data for October 12, 2018
Time Temperature Dew Point Pressure Wind Wind Speed Wind Gust Humidity Rainfall Rate (Hourly)
TemperatureF °F DewpointF °F PressureIn in Calm     Humidity % HourlyPrecipIn in
00:04 31.6 °F 31.6 °F 30.16 in WSW 4.9 mph 6 mph 100 % 0 in
00:09 31.5 °F 31.5 °F 30.16 in South 4.9 mph 6 mph 100 % 0 in
00:14 31.3 °F 31.3 °F 30.16 in SE 2.9 mph 7 mph 100 % 0 in
00:19 30.7 °F 30.7 °F 30.16 in SSW 6 mph 6 mph 100 % 0 in
00:24 30.7 °F 30.7 °F 30.16 in SSE 2 mph 3 mph 100 % 0 in
00:29 30.6 °F 30.6 °F 30.16 in SW 2 mph 3 mph 100 % 0 in
00:34 30.6 °F 30.6 °F 30.16 in SW 2 mph 6 mph 100 % 0 in
00:39 30.4 °F 30.4 °F 30.16 in SSE 0.9 mph 8 mph 100 % 0 in
00:44 30.2 °F 30.2 °F 30.16 in Calm     100 % 0 in
00:49 30 °F 30 °F 30.17 in SW 4 mph 5 mph 100 % 0 in
00:54 30 °F 30 °F 30.17 in WSW 2 mph 5 mph 100 % 0 in
00:59 30.6 °F 30.6 °F 30.17 in WSW 2 mph 4 mph 100 % 0 in
01:04 30.6 °F 30.6 °F 30.18 in WSW 0.9 mph 1 mph 100 % 0 in
01:09 30.7 °F 30.7 °F 30.18 in Calm   1 mph 100 % 0 in
01:14 31.3 °F 31.3 °F 30.18 in SE 0.9 mph 3 mph 100 % 0 in
01:19 31.5 °F 31.5 °F 30.17 in SE 2 mph 3 mph 100 % 0 in
01:24 31.6 °F 31.6 °F 30.17 in West 2 mph 2 mph 100 % 0 in
01:29 31.6 °F 31.6 °F 30.17 in SSW 0.9 mph 4 mph 100 % 0 in
01:34 31.6 °F 31.6 °F 30.17 in Calm   1 mph 100 % 0 in
01:39 31.6 °F 31.6 °F 30.17 in Calm   4 mph 100 % 0 in
01:44 31.6 °F 31.6 °F 30.17 in SE 8.9 mph 10 mph 100 % 0 in
01:49 30.9 °F 30.9 °F 30.18 in SSE 6.9 mph 12 mph 100 % 0 in
01:54 30.2 °F 30.2 °F 30.18 in SW 6.9 mph 9 mph 100 % 0 in
01:59 30 °F 30 °F 30.18 in South 8.9 mph 12 mph 100 % 0 in
02:04 30 °F 30 °F 30.18 in SSE 6 mph 10 mph 100 % 0 in
02:09 30 °F 30 °F 30.19 in SW 6 mph 9 mph 100 % 0 in
02:14 30.6 °F 30.6 °F 30.19 in WSW 6 mph 7 mph 100 % 0 in
02:19 30.9 °F 30.9 °F 30.19 in Calm   1 mph 100 % 0 in
02:24 30.7 °F 30.7 °F 30.19 in Calm   2 mph 100 % 0 in
02:29 30.7 °F 30.7 °F 30.18 in Calm     100 % 0 in
02:34 30.6 °F 30.6 °F 30.18 in Calm     100 % 0 in
02:39 30.4 °F 30.4 °F 30.18 in Calm     100 % 0 in
02:44 30.2 °F 30.2 °F 30.18 in SW 2 mph 4 mph 100 % 0 in
02:49 30 °F 30 °F 30.18 in Calm   4 mph 100 % 0 in
02:54 30.4 °F 30.4 °F 30.18 in Calm   4 mph 100 % 0 in
02:59 30.4 °F 30.4 °F 30.18 in Calm     100 % 0 in
03:04 29.8 °F 29.8 °F 30.18 in Calm   3 mph 100 % 0 in
03:09 30 °F 30 °F 30.18 in SSE 0.9 mph 1 mph 100 % 0 in
03:14 30.6 °F 30.6 °F 30.18 in South 2 mph 2 mph 100 % 0 in
03:19 30.7 °F 30.7 °F 30.18 in SE 2.9 mph 4 mph 100 % 0 in
03:24 30.7 °F 30.7 °F 30.17 in SW 8.1 mph 11 mph 100 % 0 in
03:29 31.3 °F 31.3 °F 30.18 in SW 2 mph 3 mph 100 % 0 in
03:34 31.1 °F 31.1 °F 30.18 in SW 6.9 mph 8 mph 100 % 0 in
03:39 30.9 °F 30.9 °F 30.19 in SW 2.9 mph 6 mph 100 % 0 in
03:44 30.7 °F 30.7 °F 30.19 in WSW 2 mph 4 mph 100 % 0 in
03:49 30.9 °F 30.9 °F 30.19 in Calm   5 mph 100 % 0 in
03:54 30.7 °F 30.7 °F 30.19 in Calm   1 mph 100 % 0 in
03:59 30.7 °F 30.7 °F 30.19 in Calm   2 mph 100 % 0 in
04:04 30.9 °F 30.9 °F 30.19 in NW 0.9 mph 3 mph 100 % 0 in
04:09 30.6 °F 30.6 °F 30.19 in Calm     100 % 0 in
04:14 30.9 °F 30.9 °F 30.19 in WNW 0.9 mph 1 mph 100 % 0 in
04:19 31.5 °F 31.5 °F 30.19 in Calm     100 % 0 in
04:24 31.5 °F 31.5 °F 30.19 in West 2.9 mph 3 mph 100 % 0 in
04:29 31.5 °F 31.5 °F 30.20 in Calm     100 % 0 in
04:34 31.3 °F 31.3 °F 30.20 in Calm   1 mph 100 % 0 in
04:39 31.5 °F 31.5 °F 30.20 in Calm     100 % 0 in
04:44 31.3 °F 31.3 °F 30.20 in Calm   3 mph 100 % 0 in
04:49 31.3 °F 31.3 °F 30.20 in Calm   6 mph 100 % 0 in
04:54 31.5 °F 31.5 °F 30.20 in SSW 2 mph 2 mph 100 % 0 in
04:59 31.6 °F 31.6 °F 30.20 in WSW 0.9 mph 2 mph 100 % 0 in
05:04 31.6 °F 31.6 °F 30.20 in Calm   3 mph 100 % 0 in
05:09 31.6 °F 31.6 °F 30.20 in Calm     100 % 0 in
05:14 31.5 °F 31.5 °F 30.20 in Calm   2 mph 100 % 0 in
05:19 31.5 °F 31.5 °F 30.21 in West 2 mph 4 mph 100 % 0 in
05:24 30.9 °F 30.9 °F 30.21 in WSW 4 mph 4 mph 100 % 0 in
05:29 30.9 °F 30.9 °F 30.21 in South 2.9 mph 7 mph 100 % 0 in
05:34 30.9 °F 30.9 °F 30.21 in SW 4.9 mph 6 mph 100 % 0 in
05:39 30.9 °F 30.9 °F 30.20 in SSE 0.9 mph 4 mph 100 % 0 in
05:44 31.3 °F 31.3 °F 30.21 in WNW 0.9 mph 1 mph 100 % 0 in
05:49 31.1 °F 31.1 °F 30.21 in Calm   2 mph 100 % 0 in
05:54 30.7 °F 30.7 °F 30.22 in Calm   1 mph 100 % 0 in
05:59 30.7 °F 30.7 °F 30.22 in SSE 0.9 mph 5 mph 100 % 0 in
06:04 31.3 °F 31.3 °F 30.21 in ENE 2 mph 3 mph 100 % 0 in
06:09 31.5 °F 31.5 °F 30.21 in East 2.9 mph 5 mph 100 % 0 in
06:14 31.6 °F 31.6 °F 30.22 in NE 0.9 mph 4 mph 100 % 0 in
06:19 31.6 °F 31.6 °F 30.22 in NE 6 mph 6 mph 100 % 0 in
06:24 31.6 °F 31.6 °F 30.22 in Calm   3 mph 100 % 0 in
06:29 31.3 °F 31.3 °F 30.22 in South 4 mph 6 mph 100 % 0 in
06:34 30.4 °F 30.4 °F 30.21 in SW 8.1 mph 9 mph 100 % 0 in
06:39 30.4 °F 30.4 °F 30.22 in SW 4 mph 5 mph 100 % 0 in
06:44 30.7 °F 30.7 °F 30.23 in SE 6 mph 6 mph 100 % 0 in
06:49 30.2 °F 30.2 °F 30.23 in SSE 6 mph 11 mph 100 % 0 in
06:54 30.4 °F 30.4 °F 30.24 in South 8.1 mph 9 mph 100 % 0 in
06:59 30.7 °F 30.7 °F 30.24 in SSW 6.9 mph 7 mph 100 % 0 in
07:04 30.7 °F 30.7 °F 30.24 in SW 6 mph 7 mph 100 % 0 in
07:09 29.8 °F 29.8 °F 30.24 in SW 6 mph 8 mph 100 % 0 in
07:14 29.7 °F 29.7 °F 30.24 in SSE 4 mph 5 mph 100 % 0 in
07:19 30 °F 30 °F 30.24 in SSE 2 mph 3 mph 100 % 0 in
07:24 30.7 °F 30.7 °F 30.24 in Calm   3 mph 100 % 0 in
07:29 31.6 °F 31.6 °F 30.24 in Calm     100 % 0 in
07:34 32 °F 32 °F 30.24 in SSE 0.9 mph 2 mph 100 % 0 in
07:39 31.8 °F 31.8 °F 30.24 in WNW 2 mph 3 mph 100 % 0 in
07:44 31.8 °F 31.8 °F 30.24 in SW 2 mph 3 mph 100 % 0 in
07:49 32.2 °F 32.2 °F 30.25 in West 2.9 mph 5 mph 100 % 0 in
07:54 32.4 °F 32.4 °F 30.25 in Calm   1 mph 100 % 0 in
07:59 32.5 °F 32.5 °F 30.25 in SW 2 mph 2 mph 100 % 0 in
08:04 32.4 °F 32.4 °F 30.25 in Calm   3 mph 100 % 0 in
08:09 32.5 °F 32.5 °F 30.25 in SE 2.9 mph 4 mph 100 % 0 in
08:14 33.1 °F 33.1 °F 30.25 in SE 2 mph 3 mph 100 % 0 in
08:19 33.6 °F 33.6 °F 30.25 in Calm   2 mph 100 % 0 in
08:24 33.8 °F 33.8 °F 30.25 in SW 4 mph 7 mph 100 % 0 in
08:29 33.4 °F 33.4 °F 30.24 in South 4.9 mph 6 mph 100 % 0 in
08:34 33.8 °F 33.8 °F 30.24 in SSW 2.9 mph 4 mph 100 % 0 in
08:39 34.3 °F 34.3 °F 30.24 in Calm   1 mph 100 % 0 in
08:44 35.1 °F 35.1 °F 30.24 in SSE 2 mph 4 mph 100 % 0 in
08:49 35.1 °F 35.1 °F 30.24 in Calm   4 mph 100 % 0 in
08:54 34.9 °F 34.9 °F 30.24 in ENE 0.9 mph 4 mph 100 % 0 in
08:59 35.8 °F 35.8 °F 30.24 in ENE 2.9 mph 4 mph 100 % 0.01 in
09:04 36.7 °F 36.7 °F 30.24 in Calm     100 % 0.01 in
09:09 36.7 °F 36.7 °F 30.24 in Calm     100 % 0.01 in
09:14 36.9 °F 36.9 °F 30.24 in ENE 2 mph 3 mph 100 % 0.01 in
09:19 36.7 °F 36.7 °F 30.24 in ENE 2 mph 3 mph 100 % 0.01 in
09:24 36.3 °F 36.3 °F 30.24 in Calm   5 mph 100 % 0.01 in
09:29 36.9 °F 36.9 °F 30.24 in NE 2 mph 4 mph 100 % 0.01 in
09:34 36.9 °F 36.9 °F 30.24 in East 0.9 mph 3 mph 100 % 0.01 in
09:39 37.4 °F 37.4 °F 30.23 in ENE 2 mph 4 mph 100 % 0.01 in
09:44 37.9 °F 37.9 °F 30.23 in ENE 0.9 mph 4 mph 100 % 0.01 in
09:49 38.5 °F 38.5 °F 30.23 in NE 2.9 mph 3 mph 100 % 0.01 in
09:54 38.7 °F 38.7 °F 30.23 in ENE 2 mph 5 mph 100 % 0.01 in
09:59 39.4 °F 39.4 °F 30.23 in ENE 2.9 mph 6 mph 100 % 0 in
10:04 40.3 °F 40.3 °F 30.22 in ENE 0.9 mph 1 mph 100 % 0 in
10:09 40.3 °F 40.3 °F 30.22 in NE 2 mph 5 mph 100 % 0 in
10:14 41 °F 41 °F 30.22 in ENE 2.9 mph 5 mph 100 % 0 in
10:19 41.4 °F 41.4 °F 30.21 in East 2 mph 2 mph 100 % 0 in
10:24 41.4 °F 41.4 °F 30.21 in NE 2 mph 6 mph 100 % 0 in
10:29 41.5 °F 41.5 °F 30.20 in NE 4 mph 6 mph 100 % 0 in
10:34 41.4 °F 41.4 °F 30.20 in ENE 6.9 mph 8 mph 100 % 0 in
10:39 41.4 °F 41.4 °F 30.20 in ENE 4.9 mph 7 mph 100 % 0 in
10:44 41.7 °F 41.7 °F 30.20 in NE 4.9 mph 12 mph 100 % 0 in
10:49 42.4 °F 42.4 °F 30.20 in ENE 6.9 mph 10 mph 100 % 0 in
10:54 44.2 °F 43.5 °F 30.20 in ENE 4.9 mph 8 mph 97 % 0 in
10:59 45.3 °F 41 °F 30.19 in NE 4 mph 9 mph 85 % 0 in
11:04 46.9 °F 39 °F 30.19 in NE 4.9 mph 7 mph 74 % 0 in
11:09 47.7 °F 35.6 °F 30.19 in East 6 mph 10 mph 63 % 0 in
11:14 47.8 °F 37 °F 30.19 in SE 0.9 mph 6 mph 66 % 0 in
11:19 48.6 °F 33.6 °F 30.19 in NE 4.9 mph 8 mph 56 % 0 in
11:24 48.4 °F 32 °F 30.18 in ENE 2.9 mph 5 mph 53 % 0 in
11:29 48.7 °F 36.7 °F 30.18 in ENE 8.9 mph 9 mph 63 % 0 in
11:34 48 °F 36 °F 30.18 in NE 6 mph 11 mph 63 % 0 in
11:39 47.8 °F 36.3 °F 30.19 in ENE 8.9 mph 10 mph 64 % 0 in
11:44 48 °F 37.6 °F 30.18 in NE 8.1 mph 8 mph 67 % 0 in
11:49 47.8 °F 38.1 °F 30.18 in NNE 4.9 mph 7 mph 69 % 0 in
11:54 48.7 °F 39.4 °F 30.18 in ENE 8.1 mph 10 mph 70 % 0 in
11:59 49.6 °F 37.6 °F 30.18 in ENE 12.1 mph 13 mph 63 % 0 in
12:04 50.4 °F 38.3 °F 30.18 in ENE 8.9 mph 11 mph 63 % 0 in
12:09 50.2 °F 38.8 °F 30.17 in ENE 13 mph 14 mph 65 % 0 in
12:14 50.5 °F 39.2 °F 30.17 in North 2.9 mph 8 mph 65 % 0 in
12:19 51.3 °F 38.3 °F 30.17 in ENE 11 mph 11 mph 61 % 0 in
12:24 50.9 °F 38.3 °F 30.16 in ENE 8.9 mph 17 mph 62 % 0 in
12:29 51.1 °F 38.1 °F 30.16 in East 6 mph 15 mph 61 % 0 in
12:34 51.3 °F 37.8 °F 30.16 in NE 4.9 mph 16 mph 60 % 0 in
12:39 52 °F 36.9 °F 30.16 in NE 6 mph 11 mph 56 % 0 in
12:44 52 °F 35.4 °F 30.15 in ENE 8.1 mph 8 mph 53 % 0 in
12:49 52.2 °F 35.6 °F 30.15 in ENE 8.1 mph 14 mph 53 % 0 in
12:54 52.2 °F 36 °F 30.15 in NE 6 mph 12 mph 54 % 0 in
12:59 52.3 °F 36.7 °F 30.14 in NE 8.9 mph 12 mph 55 % 0 in
13:04 52 °F 35.4 °F 30.14 in Calm   12 mph 53 % 0 in
13:09 52.9 °F 36.7 °F 30.14 in ENE 8.1 mph 11 mph 54 % 0 in
13:14 52.9 °F 35.2 °F 30.14 in ENE 4 mph 6 mph 51 % 0 in
13:19 53.2 °F 30.2 °F 30.13 in Calm   5 mph 41 % 0 in
13:24 53.8 °F 31.8 °F 30.13 in ENE 6.9 mph 9 mph 43 % 0 in
13:29 54.3 °F 33.4 °F 30.12 in East 4.9 mph 11 mph 45 % 0 in
13:34 54.3 °F 35.6 °F 30.12 in ENE 14.1 mph 15 mph 49 % 0 in
13:39 53.6 °F 32.7 °F 30.12 in ENE 10.1 mph 14 mph 45 % 0 in
13:44 54.1 °F 34.3 °F 30.11 in ENE 0.9 mph 9 mph 47 % 0 in
13:49 55.8 °F 33.1 °F 30.11 in ENE 0.9 mph 10 mph 42 % 0 in
13:54 55.2 °F 32 °F 30.11 in East 4 mph 6 mph 41 % 0 in
13:59 55.2 °F 36.3 °F 30.10 in NE 6 mph 11 mph 49 % 0 in
14:04 54.7 °F 36.9 °F 30.10 in North 6 mph 10 mph 51 % 0 in
14:09 55 °F 36.1 °F 30.10 in NE 2 mph 14 mph 49 % 0 in
14:14 54.9 °F 36.1 °F 30.09 in ENE 10.1 mph 11 mph 49 % 0 in
14:19 55.2 °F 35.4 °F 30.09 in ENE 8.9 mph 11 mph 47 % 0 in
14:24 54.7 °F 36.9 °F 30.09 in NE 6.9 mph 15 mph 51 % 0 in
14:29 54.3 °F 36.5 °F 30.09 in ENE 4 mph 8 mph 51 % 0 in
14:34 54.3 °F 36.1 °F 30.09 in SE 6.9 mph 10 mph 50 % 0 in
14:39 54.7 °F 36.9 °F 30.09 in ENE 2.9 mph 12 mph 51 % 0 in
14:44 54.7 °F 36.3 °F 30.08 in ENE 6.9 mph 14 mph 50 % 0 in
14:49 54.7 °F 34.9 °F 30.08 in East 8.9 mph 14 mph 47 % 0 in
14:54 55 °F 35.8 °F 30.08 in ENE 4 mph 15 mph 48 % 0 in
14:59 55 °F 35.2 °F 30.08 in ENE 8.1 mph 9 mph 47 % 0 in
15:04 54.9 °F 36.1 °F 30.07 in ENE 6.9 mph 16 mph 49 % 0 in
15:09 54.3 °F 35.6 °F 30.07 in ENE 8.1 mph 10 mph 49 % 0 in
15:14 54 °F 35.2 °F 30.07 in ENE 12.1 mph 14 mph 49 % 0 in
15:19 54 °F 35.2 °F 30.07 in NE 10.1 mph 14 mph 49 % 0 in
15:24 54.1 °F 34.9 °F 30.07 in NE 6.9 mph 12 mph 48 % 0 in
15:29 54.1 °F 34.3 °F 30.07 in ENE 6.9 mph 12 mph 47 % 0 in
15:34 54.7 °F 35.4 °F 30.07 in ENE 4 mph 12 mph 48 % 0 in
15:39 55 °F 35.2 °F 30.07 in ENE 10.1 mph 13 mph 47 % 0 in
15:44 55 °F 33.4 °F 30.07 in ENE 8.1 mph 16 mph 44 % 0 in
15:49 55 °F 33.4 °F 30.07 in ENE 8.1 mph 10 mph 44 % 0 in
15:54 55.2 °F 33.1 °F 30.06 in ENE 8.9 mph 11 mph 43 % 0 in
15:59 55 °F 32.9 °F 30.06 in NE 6 mph 8 mph 43 % 0 in
16:04 54.7 °F 32.5 °F 30.06 in ENE 13 mph 14 mph 43 % 0 in
16:09 54.5 °F 33.1 °F 30.05 in ENE 11 mph 12 mph 44 % 0 in
16:14 55 °F 31.1 °F 30.06 in East 4 mph 8 mph 40 % 0 in
16:19 55.6 °F 31.6 °F 30.05 in ENE 6.9 mph 10 mph 40 % 0 in
16:24 55.6 °F 29.7 °F 30.05 in ENE 0.9 mph 5 mph 37 % 0 in
16:29 56.1 °F 31.5 °F 30.05 in ENE 6 mph 10 mph 39 % 0 in
16:34 55.8 °F 31.8 °F 30.05 in ENE 4.9 mph 10 mph 40 % 0 in
16:39 55.6 °F 32.2 °F 30.05 in ENE 14.1 mph 14 mph 41 % 0 in
16:44 54.9 °F 32.2 °F 30.04 in SE 4 mph 11 mph 42 % 0 in
16:49 54.9 °F 32.2 °F 30.04 in East 4.9 mph 10 mph 42 % 0 in
16:54 54.9 °F 31.6 °F 30.04 in South 2 mph 5 mph 41 % 0 in
16:59 54.5 °F 31.8 °F 30.04 in ENE 2.9 mph 4 mph 42 % 0 in
17:04 54.3 °F 31.6 °F 30.04 in ENE 8.9 mph 11 mph 42 % 0 in
17:09 54.3 °F 32.4 °F 30.04 in ENE 4.9 mph 7 mph 43 % 0 in
17:14 54.1 °F 31.5 °F 30.04 in East 8.1 mph 9 mph 42 % 0 in
17:19 53.8 °F 31.8 °F 30.04 in ENE 8.9 mph 10 mph 43 % 0 in
17:24 53.6 °F 32.2 °F 30.04 in ENE 8.1 mph 13 mph 44 % 0 in
17:29 53.6 °F 31.6 °F 30.04 in NNW 4.9 mph 13 mph 43 % 0 in
17:34 53.4 °F 31.5 °F 30.04 in ENE 8.9 mph 14 mph 43 % 0 in
17:39 53.4 °F 32 °F 30.04 in ENE 10.1 mph 12 mph 44 % 0 in
17:44 53.1 °F 31.6 °F 30.03 in ENE 6.9 mph 13 mph 44 % 0 in
17:49 52.9 °F 31.6 °F 30.03 in East 4.9 mph 12 mph 44 % 0 in
17:54 52.5 °F 31.3 °F 30.03 in ENE 8.9 mph 11 mph 44 % 0 in
17:59 52.2 °F 30.9 °F 30.03 in ENE 8.1 mph 14 mph 44 % 0 in
18:04 52 °F 30.7 °F 30.03 in ENE 10.1 mph 11 mph 44 % 0 in
18:09 51.3 °F 31.1 °F 30.03 in ENE 10.1 mph 11 mph 46 % 0 in
18:14 51.3 °F 31.1 °F 30.03 in ENE 6.9 mph 8 mph 46 % 0 in
18:19 50.5 °F 30.6 °F 30.03 in ENE 6 mph 8 mph 46 % 0 in
18:24 50.4 °F 30.4 °F 30.03 in East 4.9 mph 11 mph 46 % 0 in
18:29 50 °F 30 °F 30.03 in ENE 8.1 mph 10 mph 46 % 0 in
18:34 50.4 °F 29.8 °F 30.03 in SE 2.9 mph 6 mph 45 % 0 in
18:39 50.5 °F 30 °F 30.03 in ENE 6 mph 6 mph 45 % 0 in
18:44 50.5 °F 30 °F 30.03 in ENE 4 mph 4 mph 45 % 0 in
18:49 50.2 °F 29.1 °F 30.03 in NE 2 mph 6 mph 44 % 0 in
18:54 49.6 °F 29.7 °F 30.03 in East 6 mph 8 mph 46 % 0 in
18:59 48.7 °F 29.8 °F 30.04 in Calm   4 mph 48 % 0 in
19:04 48.4 °F 31.1 °F 30.03 in South 6.9 mph 7 mph 51 % 0 in
19:09 47.5 °F 31.3 °F 30.03 in SSW 4.9 mph 6 mph 53 % 0 in
19:14 46.8 °F 31.5 °F 30.03 in SW 8.9 mph 11 mph 55 % 0 in
19:19 45.9 °F 31.5 °F 30.03 in SE 6.9 mph 11 mph 57 % 0 in
19:24 45 °F 31.1 °F 30.03 in South 4.9 mph 9 mph 58 % 0 in
19:29 44.4 °F 30.9 °F 30.03 in SW 8.1 mph 9 mph 59 % 0 in
19:34 44.4 °F 30.9 °F 30.03 in South 6.9 mph 8 mph 59 % 0 in
19:39 44.1 °F 31.1 °F 30.03 in West 4 mph 5 mph 60 % 0 in
19:44 43.3 °F 31.3 °F 30.03 in SSW 4 mph 6 mph 62 % 0 in
19:49 42.6 °F 31.3 °F 30.03 in South 6 mph 9 mph 64 % 0 in
19:54 42.3 °F 30.9 °F 30.03 in SW 8.1 mph 9 mph 64 % 0 in
19:59 42.1 °F 30.7 °F 30.03 in South 8.1 mph 8 mph 64 % 0 in
20:04 41.7 °F 30.4 °F 30.03 in SSW 8.1 mph 10 mph 64 % 0 in
20:09 41.4 °F 30.9 °F 30.03 in SSW 10.1 mph 10 mph 66 % 0 in
20:14 41 °F 30.6 °F 30.02 in SE 8.1 mph 11 mph 66 % 0 in
20:19 40.3 °F 30.9 °F 30.02 in SSW 6 mph 12 mph 69 % 0 in
20:24 39.9 °F 30.6 °F 30.02 in SW 8.1 mph 13 mph 69 % 0 in
20:29 39.7 °F 30.4 °F 30.02 in SSW 10.1 mph 12 mph 69 % 0 in
20:34 39.6 °F 30.2 °F 30.02 in SSW 10.1 mph 12 mph 69 % 0 in
20:39 39.4 °F 30.4 °F 30.02 in SSW 8.1 mph 9 mph 70 % 0 in
20:44 39.2 °F 30.2 °F 30.02 in SSE 8.9 mph 13 mph 70 % 0 in
20:49 39.4 °F 30.4 °F 30.02 in SE 6 mph 12 mph 70 % 0 in
20:54 39 °F 29.7 °F 30.02 in South 6.9 mph 10 mph 69 % 0 in
20:59 38.8 °F 29.5 °F 30.01 in SW 8.1 mph 12 mph 69 % 0 in
21:04 38.5 °F 29.1 °F 30.01 in South 8.1 mph 13 mph 69 % 0 in
21:09 37.8 °F 29.5 °F 30.01 in South 13 mph 16 mph 72 % 0 in
21:14 37 °F 29.8 °F 30.02 in SSE 8.9 mph 13 mph 75 % 0 in
21:19 37 °F 29.5 °F 30.02 in WSW 8.1 mph 10 mph 74 % 0 in
21:24 37.2 °F 29.3 °F 30.02 in WSW 4 mph 9 mph 73 % 0 in
21:29 37.2 °F 29.3 °F 30.02 in WSW 6.9 mph 9 mph 73 % 0 in
21:34 37.2 °F 29.1 °F 30.01 in SSW 8.1 mph 12 mph 72 % 0 in
21:39 37.8 °F 28.9 °F 30.02 in SSW 8.1 mph 10 mph 70 % 0 in
21:44 38.5 °F 28.4 °F 30.02 in SSW 8.1 mph 11 mph 67 % 0 in
21:49 38.1 °F 27.9 °F 30.02 in SW 4 mph 12 mph 66 % 0 in
21:54 38.1 °F 28.6 °F 30.01 in SSW 8.1 mph 11 mph 68 % 0 in
21:59 37.8 °F 28.9 °F 30.01 in SSW 8.9 mph 13 mph 70 % 0 in
22:04 36.5 °F 28.8 °F 30.01 in SSW 6.9 mph 11 mph 73 % 0 in
22:09 35.4 °F 28.2 °F 30.01 in South 6 mph 12 mph 75 % 0 in
22:14 35.4 °F 28.2 °F 30.01 in SSW 8.1 mph 12 mph 75 % 0 in
22:19 35.2 °F 28.4 °F 30.01 in SSW 10.1 mph 14 mph 76 % 0 in
22:24 34.7 °F 28.2 °F 30.01 in SSE 11 mph 13 mph 77 % 0 in
22:29 34.9 °F 28 °F 30.01 in South 6 mph 11 mph 76 % 0 in
22:34 34.7 °F 27.9 °F 30.01 in SW 8.9 mph 13 mph 76 % 0 in
22:39 35.1 °F 27.7 °F 30.01 in NNW 6 mph 11 mph 74 % 0 in
22:44 35.8 °F 27.7 °F 30.01 in SSE 8.9 mph 13 mph 72 % 0 in
22:49 35.6 °F 27.5 °F 30.01 in SW 10.1 mph 11 mph 72 % 0 in
22:54 36 °F 27.9 °F 30.01 in SW 8.1 mph 13 mph 72 % 0 in
22:59 35.4 °F 27.3 °F 30.01 in SSW 6.9 mph 11 mph 72 % 0 in
23:04 35.2 °F 27.1 °F 30.01 in SW 8.1 mph 12 mph 72 % 0 in
23:09 34.9 °F 27.1 °F 30.01 in South 10.1 mph 13 mph 73 % 0 in
23:14 34.5 °F 27.1 °F 30.01 in SW 11 mph 13 mph 74 % 0 in
23:19 34 °F 27.1 °F 30.01 in SW 11 mph 12 mph 76 % 0 in
23:24 34.2 °F 27.1 °F 30.01 in SE 8.1 mph 12 mph 75 % 0 in
23:29 33.8 °F 27 °F 30.01 in South 11 mph 14 mph 76 % 0 in
23:34 33.6 °F 26.6 °F 30.01 in South 11 mph 13 mph 75 % 0 in
23:39 33.1 °F 26.4 °F 30.00 in SSW 12.1 mph 15 mph 76 % 0 in
23:44 32.9 °F 26.4 °F 30.00 in South 11 mph 14 mph 77 % 0 in
23:49 32.7 °F 26.6 °F 30.00 in SSW 11 mph 15 mph 78 % 0 in
23:54 32.4 °F 26.2 °F 30.00 in South 12.1 mph 15 mph 78 % 0 in
23:59 32.4 °F 26.2 °F 30.00 in SSW 8.1 mph 14 mph 78 % 0 in
Evergreen Colorado, USA
Compliments of Weather Underground - 3.5 mb